createdAt,value
2018-07-31T00:00:30.417Z,19.81
2018-07-31T00:02:58.722Z,19.76
2018-07-31T00:05:26.953Z,19.69
2018-07-31T00:07:56.943Z,20.00
2018-07-31T00:10:25.360Z,20.08
2018-07-31T00:12:53.645Z,20.14
2018-07-31T00:15:22.012Z,20.29
2018-07-31T00:17:50.405Z,19.82
2018-07-31T00:20:18.729Z,19.64
2018-07-31T00:22:47.007Z,19.57
2018-07-31T00:25:15.293Z,19.42
2018-07-31T00:27:43.592Z,19.40
2018-07-31T00:30:12.014Z,19.30
2018-07-31T00:32:40.321Z,19.14
2018-07-31T00:35:08.637Z,19.03
2018-07-31T00:37:36.905Z,19.18
2018-07-31T00:40:05.332Z,19.33
2018-07-31T00:42:33.604Z,19.72
2018-07-31T00:45:01.917Z,19.70
2018-07-31T00:47:30.310Z,19.38
2018-07-31T00:49:58.552Z,19.16
2018-07-31T00:52:26.992Z,19.28
2018-07-31T00:54:55.266Z,19.68
2018-07-31T00:57:23.782Z,19.82
2018-07-31T00:59:52.198Z,19.82
2018-07-31T01:02:20.505Z,19.98
2018-07-31T01:04:48.881Z,19.90
2018-07-31T01:07:17.177Z,19.52
2018-07-31T01:09:45.493Z,19.42
2018-07-31T01:12:13.749Z,19.21
2018-07-31T01:14:42.030Z,19.15
2018-07-31T01:17:10.428Z,19.23
2018-07-31T01:19:38.799Z,19.52
2018-07-31T01:22:11.285Z,19.50
2018-07-31T01:24:39.586Z,19.58
2018-07-31T01:27:07.890Z,19.64
2018-07-31T01:29:36.249Z,19.45
2018-07-31T01:32:04.858Z,18.87
2018-07-31T01:34:33.143Z,18.61
2018-07-31T01:37:01.548Z,18.61
2018-07-31T01:39:29.989Z,18.59
2018-07-31T01:41:58.241Z,18.56
2018-07-31T01:44:26.511Z,19.03
2018-07-31T01:46:54.902Z,19.10
2018-07-31T01:49:23.153Z,19.45
2018-07-31T01:51:51.421Z,19.29
2018-07-31T01:54:19.692Z,18.83
2018-07-31T01:56:48.093Z,18.62
2018-07-31T01:59:16.380Z,18.64
2018-07-31T02:01:44.704Z,18.63
2018-07-31T02:04:13.102Z,19.07
2018-07-31T02:06:41.342Z,19.21
2018-07-31T02:09:09.729Z,19.15
2018-07-31T02:11:37.992Z,18.68
2018-07-31T02:14:06.325Z,18.51
2018-07-31T02:16:34.664Z,18.50
2018-07-31T02:19:02.913Z,18.53
2018-07-31T02:21:31.393Z,18.66
2018-07-31T02:23:59.711Z,18.96
2018-07-31T02:26:28.073Z,18.82
2018-07-31T02:28:56.433Z,18.56
2018-07-31T02:31:24.849Z,18.63
2018-07-31T02:33:53.266Z,18.36
2018-07-31T02:36:21.566Z,18.60
2018-07-31T02:38:49.858Z,18.68
2018-07-31T02:41:18.143Z,18.88
2018-07-31T02:43:46.481Z,18.49
2018-07-31T02:46:14.893Z,18.59
2018-07-31T02:48:43.185Z,18.62
2018-07-31T02:51:11.526Z,18.66
2018-07-31T02:53:39.913Z,18.52
2018-07-31T02:56:08.419Z,18.22
2018-07-31T02:58:36.819Z,18.13
2018-07-31T03:01:05.173Z,18.50
2018-07-31T03:03:40.265Z,18.49
2018-07-31T03:06:08.666Z,18.41
2018-07-31T03:08:36.973Z,18.56
2018-07-31T03:11:05.313Z,18.29
2018-07-31T03:13:33.700Z,18.12
2018-07-31T03:16:02.105Z,18.00
2018-07-31T03:18:30.480Z,18.18
2018-07-31T03:20:58.875Z,18.19
2018-07-31T03:23:27.196Z,18.38
2018-07-31T03:25:55.454Z,18.31
2018-07-31T03:28:23.730Z,18.17
2018-07-31T03:30:52.033Z,17.87
2018-07-31T03:33:20.316Z,17.76
2018-07-31T03:35:48.717Z,18.01
2018-07-31T03:38:16.996Z,18.15
2018-07-31T03:40:45.855Z,18.08
2018-07-31T03:43:14.269Z,17.77
2018-07-31T03:45:42.664Z,17.72
2018-07-31T03:48:11.106Z,17.77
2018-07-31T03:50:39.502Z,17.87
2018-07-31T03:53:07.798Z,18.17
2018-07-31T03:55:36.087Z,18.25
2018-07-31T03:58:04.419Z,18.17
2018-07-31T04:00:32.685Z,17.72
2018-07-31T04:03:01.165Z,17.55
2018-07-31T04:05:29.475Z,17.64
2018-07-31T04:07:57.889Z,17.88
2018-07-31T04:10:26.243Z,18.10
2018-07-31T04:12:54.661Z,18.16
2018-07-31T04:15:22.945Z,18.14
2018-07-31T04:17:54.369Z,18.02
2018-07-31T04:20:22.781Z,17.90
2018-07-31T04:22:51.157Z,17.98
2018-07-31T04:25:21.868Z,18.16
2018-07-31T04:27:53.128Z,18.44
2018-07-31T04:30:22.304Z,18.67
2018-07-31T04:32:53.514Z,18.80
2018-07-31T04:35:21.868Z,18.52
2018-07-31T04:37:51.041Z,18.36
2018-07-31T04:40:19.465Z,18.26
2018-07-31T04:49:01.920Z,18.65
2018-07-31T04:52:33.310Z,18.73
2018-07-31T04:55:02.399Z,19.07
2018-07-31T04:57:32.595Z,19.13
2018-07-31T05:00:01.259Z,19.33
2018-07-31T05:02:31.569Z,19.44
2018-07-31T05:05:00.312Z,19.52
2018-07-31T05:07:28.996Z,19.56
2018-07-31T05:09:59.562Z,19.68
2018-07-31T05:12:29.613Z,19.69
2018-07-31T05:14:58.107Z,19.86
2018-07-31T05:17:30.303Z,19.99
2018-07-31T05:20:00.472Z,20.14
2018-07-31T05:22:53.292Z,20.22
2018-07-31T05:25:26.401Z,20.26
2018-07-31T05:27:55.928Z,20.33
2018-07-31T05:30:25.064Z,20.45
2018-07-31T05:32:55.221Z,20.59
2018-07-31T05:35:26.988Z,20.71
2018-07-31T05:37:57.450Z,20.90
2018-07-31T05:40:26.821Z,21.07
2018-07-31T05:42:57.602Z,21.22
2018-07-31T05:45:34.129Z,21.34
2018-07-31T05:48:04.163Z,21.43
2018-07-31T05:50:33.942Z,21.57
2018-07-31T05:53:02.543Z,21.71
2018-07-31T05:55:31.821Z,21.93
2018-07-31T05:58:21.399Z,22.06
2018-07-31T06:00:50.072Z,22.29
2018-07-31T06:03:18.679Z,22.35
2018-07-31T06:05:55.028Z,22.50
2018-07-31T06:08:25.471Z,22.60
2018-07-31T06:10:54.099Z,22.77
2018-07-31T06:13:23.486Z,22.96
2018-07-31T06:15:52.008Z,23.19
2018-07-31T06:18:22.227Z,23.27
2018-07-31T06:20:50.710Z,23.43
2018-07-31T06:23:20.157Z,23.48
2018-07-31T06:25:50.971Z,23.62
2018-07-31T06:28:20.521Z,23.96
2018-07-31T06:30:50.002Z,24.11
2018-07-31T06:33:18.359Z,24.35
2018-07-31T06:35:50.003Z,24.42
2018-07-31T06:38:20.581Z,24.47
2018-07-31T06:40:49.649Z,24.34
2018-07-31T06:43:18.636Z,24.59
2018-07-31T06:45:47.244Z,24.59
2018-07-31T06:48:15.930Z,24.81
2018-07-31T06:50:44.362Z,24.63
2018-07-31T06:53:15.917Z,24.73
2018-07-31T06:55:46.536Z,24.77
2018-07-31T06:58:15.055Z,24.88
2018-07-31T07:00:45.479Z,24.95
2018-07-31T07:03:17.480Z,25.02
2018-07-31T07:05:45.961Z,25.30
2018-07-31T07:08:15.434Z,25.39
2018-07-31T07:10:44.001Z,25.42
2018-07-31T07:13:12.551Z,25.49
2018-07-31T07:15:40.895Z,25.53
2018-07-31T07:18:09.831Z,25.68
2018-07-31T07:20:39.470Z,25.97
2018-07-31T07:23:13.554Z,25.92
2018-07-31T07:25:43.476Z,26.07
2018-07-31T07:28:13.123Z,26.28
2018-07-31T07:33:27.242Z,26.53
2018-07-31T07:35:57.725Z,26.71
2018-07-31T07:38:26.875Z,26.88
2018-07-31T07:41:02.551Z,26.82
2018-07-31T07:43:32.257Z,26.94
2018-07-31T07:46:00.978Z,27.06
2018-07-31T07:48:31.447Z,27.09
2018-07-31T07:51:02.086Z,27.30
2018-07-31T07:53:34.581Z,27.51
2018-07-31T07:56:10.235Z,27.38
2018-07-31T07:58:41.237Z,27.32
2018-07-31T08:01:10.703Z,27.46
2018-07-31T08:03:39.206Z,27.52
2018-07-31T08:06:07.914Z,27.64
2018-07-31T08:08:36.695Z,27.69
2018-07-31T08:11:12.432Z,27.99
2018-07-31T08:13:41.298Z,28.05
2018-07-31T08:16:09.704Z,28.23
2018-07-31T08:18:38.041Z,28.31
2018-07-31T08:21:07.306Z,28.63
2018-07-31T08:23:36.942Z,28.61
2018-07-31T08:26:05.548Z,28.68
2018-07-31T08:28:34.833Z,28.68
2018-07-31T08:31:04.077Z,28.73
2018-07-31T08:33:33.125Z,28.69
2018-07-31T08:36:01.636Z,28.78
2018-07-31T08:38:30.141Z,28.96
2018-07-31T08:40:58.619Z,29.09
2018-07-31T08:43:27.780Z,28.99
2018-07-31T08:46:01.005Z,29.09
2018-07-31T08:48:29.577Z,29.24
2018-07-31T08:50:58.083Z,29.34
2018-07-31T08:53:26.597Z,29.46
2018-07-31T08:55:55.126Z,29.48
2018-07-31T08:58:24.521Z,29.38
2018-07-31T09:00:53.106Z,29.48
2018-07-31T09:03:21.741Z,29.60
2018-07-31T09:05:50.237Z,30.57
2018-07-31T09:08:19.318Z,30.33
2018-07-31T09:10:47.692Z,30.01
2018-07-31T09:13:16.280Z,30.15
2018-07-31T09:15:44.769Z,31.02
2018-07-31T09:18:14.250Z,30.35
2018-07-31T09:20:42.715Z,30.68
2018-07-31T09:23:11.134Z,30.86
2018-07-31T09:25:45.832Z,30.72
2018-07-31T09:28:15.893Z,30.74
2018-07-31T09:30:49.593Z,30.56
2018-07-31T09:33:18.104Z,30.58
2018-07-31T09:35:46.955Z,30.48
2018-07-31T09:38:15.414Z,30.61
2018-07-31T09:40:43.917Z,30.64
2018-07-31T09:43:13.402Z,30.84
2018-07-31T09:45:43.049Z,30.64
2018-07-31T09:48:11.932Z,30.77
2018-07-31T09:50:40.450Z,30.98
2018-07-31T09:53:09.347Z,30.83
2018-07-31T09:55:38.992Z,30.96
2018-07-31T09:58:07.395Z,31.19
2018-07-31T10:00:40.949Z,31.56
2018-07-31T10:03:09.439Z,31.59
2018-07-31T10:05:37.944Z,31.76
2018-07-31T10:08:07.003Z,31.75
2018-07-31T10:10:35.666Z,31.75
2018-07-31T10:13:04.520Z,31.75
2018-07-31T10:15:34.286Z,31.82
2018-07-31T10:18:02.764Z,31.88
2018-07-31T10:20:31.157Z,32.00
2018-07-31T10:22:59.661Z,32.06
2018-07-31T10:25:28.099Z,31.89
2018-07-31T10:27:56.578Z,32.01
2018-07-31T10:30:25.114Z,31.86
2018-07-31T10:32:53.718Z,32.00
2018-07-31T10:35:22.820Z,32.21
2018-07-31T10:37:51.554Z,32.29
2018-07-31T10:40:19.977Z,32.18
2018-07-31T10:42:48.399Z,32.37
2018-07-31T10:45:17.516Z,32.46
2018-07-31T10:47:46.657Z,32.12
2018-07-31T10:50:16.095Z,31.85
2018-07-31T10:52:44.603Z,31.81
2018-07-31T10:55:13.595Z,31.86
2018-07-31T10:57:43.256Z,31.78
2018-07-31T11:00:11.665Z,32.05
2018-07-31T11:02:40.667Z,32.48
2018-07-31T11:05:09.259Z,32.44
2018-07-31T11:07:37.542Z,32.78
2018-07-31T11:10:06.220Z,33.07
2018-07-31T11:12:34.580Z,33.21
2018-07-31T11:15:02.970Z,33.29
2018-07-31T11:17:31.269Z,33.17
2018-07-31T11:19:59.859Z,32.73
2018-07-31T11:22:28.181Z,32.73
2018-07-31T11:24:56.491Z,32.78
2018-07-31T11:27:24.853Z,33.05
2018-07-31T11:29:53.161Z,33.17
2018-07-31T11:32:21.582Z,33.36
2018-07-31T11:34:49.988Z,32.94
2018-07-31T11:37:18.307Z,32.98
2018-07-31T11:39:46.620Z,32.97
2018-07-31T11:42:14.939Z,33.18
2018-07-31T11:44:43.285Z,33.17
2018-07-31T11:47:11.889Z,33.50
2018-07-31T11:49:40.290Z,33.53
2018-07-31T11:52:08.699Z,33.46
2018-07-31T11:54:37.146Z,33.70
2018-07-31T11:57:05.486Z,33.73
2018-07-31T11:59:35.999Z,33.53
2018-07-31T12:02:11.085Z,33.58
2018-07-31T12:04:44.667Z,33.64
2018-07-31T12:07:17.402Z,33.84
2018-07-31T12:09:52.132Z,33.55
2018-07-31T12:12:26.990Z,33.91
2018-07-31T12:14:55.330Z,33.97
2018-07-31T12:17:23.630Z,34.03
2018-07-31T12:19:51.938Z,33.48
2018-07-31T12:22:20.249Z,33.54
2018-07-31T12:24:48.611Z,33.64
2018-07-31T12:27:16.946Z,34.03
2018-07-31T12:29:45.303Z,33.82
2018-07-31T12:32:13.644Z,34.02
2018-07-31T12:34:42.012Z,33.69
2018-07-31T12:37:10.411Z,33.61
2018-07-31T12:39:38.743Z,33.64
2018-07-31T12:42:07.158Z,33.59
2018-07-31T12:44:35.477Z,33.89
2018-07-31T12:47:03.806Z,33.42
2018-07-31T12:49:32.113Z,33.70
2018-07-31T12:52:00.457Z,33.73
2018-07-31T12:54:28.763Z,33.94
2018-07-31T12:56:57.102Z,34.37
2018-07-31T12:59:25.538Z,34.60
2018-07-31T13:01:53.891Z,34.31
2018-07-31T13:05:47.122Z,34.02
2018-07-31T13:08:15.655Z,33.71
2018-07-31T13:10:44.105Z,33.49
2018-07-31T13:13:12.529Z,33.47
2018-07-31T13:15:41.003Z,33.42
2018-07-31T13:18:09.305Z,33.42
2018-07-31T13:20:37.875Z,33.39
2018-07-31T13:23:06.351Z,33.44
2018-07-31T13:25:34.931Z,33.52
2018-07-31T13:28:03.278Z,33.41
2018-07-31T13:30:31.626Z,33.29
2018-07-31T13:32:59.962Z,33.57
2018-07-31T13:35:28.309Z,33.61
2018-07-31T13:37:56.606Z,33.70
2018-07-31T13:40:24.940Z,33.58
2018-07-31T13:42:53.292Z,33.52
2018-07-31T13:45:21.589Z,33.52
2018-07-31T13:47:49.901Z,33.46
2018-07-31T13:50:18.270Z,33.37
2018-07-31T13:52:46.620Z,33.26
2018-07-31T13:55:14.983Z,32.99
2018-07-31T13:57:43.278Z,33.02
2018-07-31T14:00:11.665Z,33.01
2018-07-31T14:02:39.986Z,33.03
2018-07-31T14:05:08.328Z,32.97
2018-07-31T14:07:36.839Z,33.16
2018-07-31T14:10:05.562Z,33.31
2018-07-31T14:12:33.868Z,33.21
2018-07-31T14:15:02.160Z,33.32
2018-07-31T14:17:30.582Z,33.54
2018-07-31T14:19:59.048Z,33.54
2018-07-31T14:22:27.487Z,33.62
2018-07-31T14:24:55.806Z,33.73
2018-07-31T14:27:24.142Z,33.78
2018-07-31T14:29:52.491Z,33.82
2018-07-31T14:32:20.836Z,33.84
2018-07-31T14:34:49.139Z,33.91
2018-07-31T14:37:17.464Z,33.55
2018-07-31T14:39:45.767Z,33.61
2018-07-31T14:42:14.120Z,33.47
2018-07-31T14:44:42.478Z,33.61
2018-07-31T14:47:10.827Z,33.69
2018-07-31T14:49:39.137Z,33.55
2018-07-31T14:52:07.454Z,33.37
2018-07-31T14:54:35.754Z,33.24
2018-07-31T14:57:04.145Z,33.18
2018-07-31T14:59:32.468Z,33.40
2018-07-31T15:02:00.805Z,33.53
2018-07-31T15:04:29.123Z,33.65
2018-07-31T15:06:57.463Z,33.31
2018-07-31T15:09:25.786Z,33.26
2018-07-31T15:11:54.145Z,33.26
2018-07-31T15:14:22.443Z,33.35
2018-07-31T15:16:50.771Z,33.63
2018-07-31T15:19:19.068Z,33.57
2018-07-31T15:21:47.414Z,33.52
2018-07-31T15:24:15.723Z,33.59
2018-07-31T15:26:44.052Z,33.66
2018-07-31T15:29:12.380Z,33.46
2018-07-31T15:31:40.703Z,33.60
2018-07-31T15:34:08.998Z,33.64
2018-07-31T15:36:37.325Z,33.60
2018-07-31T15:39:08.674Z,33.61
2018-07-31T15:41:37.047Z,33.72
2018-07-31T15:44:05.395Z,33.54
2018-07-31T15:46:33.715Z,33.74
2018-07-31T15:49:02.013Z,33.94
2018-07-31T15:51:30.351Z,33.86
2018-07-31T15:53:58.711Z,33.83
2018-07-31T15:56:27.098Z,33.73
2018-07-31T15:58:55.629Z,33.66
2018-07-31T16:01:23.934Z,33.72
2018-07-31T16:03:52.256Z,33.64
2018-07-31T16:06:20.609Z,33.30
2018-07-31T16:08:55.537Z,33.20
2018-07-31T16:11:23.963Z,33.17
2018-07-31T16:13:52.288Z,33.13
2018-07-31T16:16:20.609Z,33.06
2018-07-31T16:18:48.928Z,33.08
2018-07-31T16:21:17.242Z,32.95
2018-07-31T16:23:45.725Z,32.90
2018-07-31T16:26:14.048Z,32.87
2018-07-31T16:28:42.380Z,32.71
2018-07-31T16:31:10.739Z,32.68
2018-07-31T16:33:39.098Z,32.86
2018-07-31T16:36:07.583Z,32.72
2018-07-31T16:38:35.945Z,32.57
2018-07-31T16:41:04.297Z,32.63
2018-07-31T16:43:32.839Z,32.68
2018-07-31T16:46:01.495Z,32.79
2018-07-31T16:48:29.811Z,32.48
2018-07-31T16:50:58.140Z,32.49
2018-07-31T16:53:26.629Z,32.58
2018-07-31T16:55:54.997Z,32.61
2018-07-31T16:58:23.326Z,32.76
2018-07-31T17:00:51.795Z,32.82
2018-07-31T17:03:20.217Z,32.76
2018-07-31T17:05:48.575Z,32.73
2018-07-31T17:08:16.892Z,32.63
2018-07-31T17:10:45.271Z,32.45
2018-07-31T17:13:13.610Z,32.27
2018-07-31T17:15:41.928Z,32.24
2018-07-31T17:18:10.265Z,32.33
2018-07-31T17:20:38.634Z,32.40
2018-07-31T17:23:07.195Z,32.40
2018-07-31T17:25:35.574Z,32.41
2018-07-31T17:28:04.064Z,32.15
2018-07-31T17:30:32.396Z,32.32
2018-07-31T17:33:00.726Z,32.17
2018-07-31T17:35:29.093Z,32.35
2018-07-31T17:37:57.717Z,32.29
2018-07-31T17:40:26.172Z,32.39
2018-07-31T17:42:54.511Z,32.25
2018-07-31T17:45:22.847Z,32.12
2018-07-31T17:47:51.663Z,32.10
2018-07-31T17:50:19.959Z,31.97
2018-07-31T17:52:48.467Z,32.05
2018-07-31T17:55:16.741Z,31.97
2018-07-31T17:57:45.113Z,32.09
2018-07-31T18:00:13.455Z,31.58
2018-07-31T18:02:41.800Z,31.51
2018-07-31T18:05:10.263Z,31.50
2018-07-31T18:07:38.612Z,31.51
2018-07-31T18:10:07.175Z,31.55
2018-07-31T18:12:35.581Z,31.47
2018-07-31T18:15:03.942Z,31.40
2018-07-31T18:17:32.250Z,31.27
2018-07-31T18:20:00.590Z,31.11
2018-07-31T18:22:28.985Z,30.97
2018-07-31T18:24:57.278Z,30.92
2018-07-31T18:27:25.978Z,31.01
2018-07-31T18:29:54.702Z,30.88
2018-07-31T18:32:22.994Z,30.73
2018-07-31T18:34:51.936Z,30.67
2018-07-31T18:37:20.275Z,30.62
2018-07-31T18:39:48.678Z,30.44
2018-07-31T18:42:17.002Z,30.37
2018-07-31T18:44:45.317Z,30.27
2018-07-31T18:47:13.613Z,30.23
2018-07-31T18:49:42.155Z,30.36
2018-07-31T18:52:10.481Z,30.41
2018-07-31T18:54:38.900Z,30.23
2018-07-31T18:57:07.341Z,30.15
2018-07-31T18:59:35.771Z,29.96
2018-07-31T19:02:04.146Z,29.98
2018-07-31T19:05:01.654Z,29.85
2018-07-31T19:07:31.394Z,29.60
2018-07-31T19:10:00.108Z,29.69
2018-07-31T19:12:28.434Z,29.75
2018-07-31T19:14:56.951Z,29.60
2018-07-31T19:17:25.371Z,29.60
2018-07-31T19:19:53.694Z,29.59
2018-07-31T19:22:22.107Z,29.48
2018-07-31T19:24:50.500Z,29.45
2018-07-31T19:27:18.805Z,29.45
2018-07-31T19:29:47.398Z,29.52
2018-07-31T19:32:16.019Z,29.51
2018-07-31T19:34:44.375Z,29.46
2018-07-31T19:37:12.803Z,29.31
2018-07-31T19:39:41.319Z,29.34
2018-07-31T19:42:09.879Z,29.18
2018-07-31T19:44:38.420Z,29.31
2018-07-31T19:47:07.406Z,29.11
2018-07-31T19:49:35.971Z,29.04
2018-07-31T19:52:04.586Z,28.90
2018-07-31T19:54:32.942Z,28.80
2018-07-31T19:57:01.279Z,28.75
2018-07-31T19:59:29.688Z,28.81
2018-07-31T20:01:58.152Z,28.57
2018-07-31T20:04:26.668Z,28.44
2018-07-31T20:06:55.268Z,28.45
2018-07-31T20:09:28.446Z,28.34
2018-07-31T20:11:57.755Z,28.46
2018-07-31T20:14:26.566Z,28.46
2018-07-31T20:16:55.858Z,28.37
2018-07-31T20:19:24.251Z,28.15
2018-07-31T20:21:53.046Z,27.94
2018-07-31T20:24:21.450Z,27.86
2018-07-31T20:26:50.862Z,27.69
2018-07-31T20:29:24.513Z,27.71
2018-07-31T20:31:52.883Z,27.61
2018-07-31T20:34:22.334Z,27.45
2018-07-31T20:36:50.743Z,27.40
2018-07-31T20:39:20.378Z,27.29
2018-07-31T20:41:48.836Z,27.30
2018-07-31T20:44:20.610Z,27.11
2018-07-31T20:46:49.153Z,27.06
2018-07-31T20:49:18.368Z,27.03
2018-07-31T20:51:47.011Z,27.03
2018-07-31T20:54:15.454Z,27.01
2018-07-31T20:56:47.815Z,26.87
2018-07-31T20:59:16.183Z,26.65
2018-07-31T21:01:45.380Z,26.84
2018-07-31T21:04:15.915Z,26.71
2018-07-31T21:06:50.086Z,26.70
2018-07-31T21:09:20.820Z,26.57
2018-07-31T21:11:51.506Z,26.49
2018-07-31T21:14:21.278Z,26.39
2018-07-31T21:17:05.535Z,26.38
2018-07-31T21:19:33.950Z,26.36
2018-07-31T21:22:02.332Z,26.28
2018-07-31T21:24:30.622Z,26.16
2018-07-31T21:26:58.962Z,26.14
2018-07-31T21:29:27.254Z,26.04
2018-07-31T21:31:55.590Z,26.19
2018-07-31T21:34:23.898Z,26.12
2018-07-31T21:36:52.227Z,26.17
2018-07-31T21:39:20.577Z,25.83
2018-07-31T21:41:48.960Z,25.88
2018-07-31T21:44:17.328Z,25.89
2018-07-31T21:46:45.676Z,25.92
2018-07-31T21:49:14.007Z,25.82
2018-07-31T21:51:51.797Z,25.81
2018-07-31T21:54:20.093Z,25.56
2018-07-31T21:56:48.551Z,25.58
2018-07-31T21:59:17.998Z,25.57
2018-07-31T22:01:46.319Z,25.43
2018-07-31T22:04:14.610Z,25.50
2018-07-31T22:06:42.930Z,25.29
2018-07-31T22:09:11.247Z,25.29
2018-07-31T22:11:39.607Z,25.22
2018-07-31T22:14:08.223Z,25.10
2018-07-31T22:16:36.549Z,25.05
2018-07-31T22:19:04.854Z,25.09
2018-07-31T22:21:33.186Z,25.09
2018-07-31T22:24:01.497Z,24.84
2018-07-31T22:26:29.782Z,25.06
2018-07-31T22:28:58.138Z,25.04
2018-07-31T22:31:26.445Z,24.87
2018-07-31T22:33:54.746Z,24.94
2018-07-31T22:36:23.120Z,24.85
2018-07-31T22:38:51.406Z,24.66
2018-07-31T22:41:19.755Z,24.87
2018-07-31T22:43:48.057Z,24.60
2018-07-31T22:46:16.350Z,24.54
2018-07-31T22:48:44.647Z,24.46
2018-07-31T22:51:12.970Z,24.44
2018-07-31T22:53:41.252Z,24.28
2018-07-31T22:56:09.539Z,24.29
2018-07-31T22:58:37.864Z,24.05
2018-07-31T23:01:06.215Z,24.21
2018-07-31T23:03:34.531Z,24.32
2018-07-31T23:06:02.986Z,24.09
2018-07-31T23:08:31.294Z,24.05
2018-07-31T23:10:59.592Z,23.92
2018-07-31T23:13:27.895Z,23.93
2018-07-31T23:15:56.200Z,24.07
2018-07-31T23:18:24.527Z,23.78
2018-07-31T23:20:52.896Z,23.73
2018-07-31T23:23:21.210Z,23.76
2018-07-31T23:25:49.534Z,23.97
2018-07-31T23:28:24.646Z,24.07
2018-07-31T23:30:52.984Z,23.99
2018-07-31T23:33:21.339Z,23.90
2018-07-31T23:35:49.662Z,23.72
2018-07-31T23:38:17.959Z,23.80
2018-07-31T23:40:46.258Z,23.80
2018-07-31T23:43:14.581Z,23.71
2018-07-31T23:45:42.883Z,23.54
2018-07-31T23:48:11.206Z,23.79
2018-07-31T23:50:39.547Z,23.62
2018-07-31T23:53:07.942Z,23.41
2018-07-31T23:55:36.231Z,23.55
2018-07-31T23:58:04.561Z,23.54
